sensor_id;sensor_type;location;lat;lon;timestamp;P1;durP1;ratioP1;P2;durP2;ratioP2
31754;SDS011;18325;52.018;4.726;2022-10-28T00:01:26;10.63;;;5.13;;
31754;SDS011;18325;52.018;4.726;2022-10-28T00:03:53;9.70;;;5.23;;
31754;SDS011;18325;52.018;4.726;2022-10-28T00:06:25;10.60;;;5.47;;
31754;SDS011;18325;52.018;4.726;2022-10-28T00:08:53;10.87;;;5.60;;
31754;SDS011;18325;52.018;4.726;2022-10-28T00:11:21;10.27;;;5.03;;
31754;SDS011;18325;52.018;4.726;2022-10-28T00:13:52;11.83;;;4.83;;
31754;SDS011;18325;52.018;4.726;2022-10-28T00:19:32;10.60;;;5.27;;
31754;SDS011;18325;52.018;4.726;2022-10-28T00:21:59;11.63;;;6.20;;
31754;SDS011;18325;52.018;4.726;2022-10-28T00:24:26;11.23;;;5.80;;
31754;SDS011;18325;52.018;4.726;2022-10-28T00:26:53;8.60;;;5.70;;
31754;SDS011;18325;52.018;4.726;2022-10-28T00:29:23;10.90;;;5.50;;
31754;SDS011;18325;52.018;4.726;2022-10-28T00:32:00;9.93;;;5.73;;
31754;SDS011;18325;52.018;4.726;2022-10-28T00:34:26;11.27;;;5.90;;
31754;SDS011;18325;52.018;4.726;2022-10-28T00:36:55;8.70;;;5.33;;
31754;SDS011;18325;52.018;4.726;2022-10-28T00:39:23;14.27;;;5.57;;
31754;SDS011;18325;52.018;4.726;2022-10-28T00:41:52;9.83;;;5.87;;
31754;SDS011;18325;52.018;4.726;2022-10-28T00:44:53;7.53;;;4.70;;
31754;SDS011;18325;52.018;4.726;2022-10-28T00:47:26;9.00;;;5.20;;
31754;SDS011;18325;52.018;4.726;2022-10-28T00:49:56;12.30;;;5.47;;
31754;SDS011;18325;52.018;4.726;2022-10-28T00:52:41;11.40;;;5.47;;
31754;SDS011;18325;52.018;4.726;2022-10-28T00:55:22;12.30;;;6.27;;
31754;SDS011;18325;52.018;4.726;2022-10-28T00:57:49;8.23;;;4.63;;
31754;SDS011;18325;52.018;4.726;2022-10-28T01:00:22;11.43;;;6.07;;
31754;SDS011;18325;52.018;4.726;2022-10-28T01:02:49;11.93;;;6.00;;
31754;SDS011;18325;52.018;4.726;2022-10-28T01:05:19;11.13;;;6.03;;
31754;SDS011;18325;52.018;4.726;2022-10-28T01:07:48;12.93;;;5.63;;
31754;SDS011;18325;52.018;4.726;2022-10-28T01:10:15;8.20;;;5.43;;
31754;SDS011;18325;52.018;4.726;2022-10-28T01:12:49;9.80;;;5.57;;
31754;SDS011;18325;52.018;4.726;2022-10-28T01:15:26;9.73;;;5.83;;
31754;SDS011;18325;52.018;4.726;2022-10-28T01:17:58;8.60;;;5.37;;
31754;SDS011;18325;52.018;4.726;2022-10-28T01:20:45;11.30;;;6.10;;
31754;SDS011;18325;52.018;4.726;2022-10-28T01:23:38;10.57;;;4.97;;
31754;SDS011;18325;52.018;4.726;2022-10-28T01:32:24;8.50;;;5.20;;
31754;SDS011;18325;52.018;4.726;2022-10-28T01:34:57;10.00;;;5.80;;
31754;SDS011;18325;52.018;4.726;2022-10-28T01:37:29;10.37;;;5.23;;
31754;SDS011;18325;52.018;4.726;2022-10-28T01:40:00;9.23;;;6.13;;
31754;SDS011;18325;52.018;4.726;2022-10-28T01:42:41;8.57;;;5.27;;
31754;SDS011;18325;52.018;4.726;2022-10-28T01:45:14;9.23;;;5.43;;
31754;SDS011;18325;52.018;4.726;2022-10-28T01:47:52;9.00;;;5.87;;
31754;SDS011;18325;52.018;4.726;2022-10-28T01:50:26;12.27;;;6.00;;
31754;SDS011;18325;52.018;4.726;2022-10-28T01:52:57;11.20;;;4.27;;
31754;SDS011;18325;52.018;4.726;2022-10-28T01:55:27;11.67;;;6.07;;
31754;SDS011;18325;52.018;4.726;2022-10-28T01:57:56;13.40;;;5.90;;
31754;SDS011;18325;52.018;4.726;2022-10-28T02:00:24;9.63;;;5.37;;
31754;SDS011;18325;52.018;4.726;2022-10-28T02:02:53;11.93;;;5.57;;
31754;SDS011;18325;52.018;4.726;2022-10-28T02:05:35;13.70;;;6.70;;
31754;SDS011;18325;52.018;4.726;2022-10-28T02:08:11;11.53;;;5.63;;
31754;SDS011;18325;52.018;4.726;2022-10-28T02:10:46;13.30;;;5.83;;
31754;SDS011;18325;52.018;4.726;2022-10-28T02:13:33;8.60;;;5.03;;
31754;SDS011;18325;52.018;4.726;2022-10-28T02:16:06;9.33;;;5.27;;
31754;SDS011;18325;52.018;4.726;2022-10-28T02:18:58;8.77;;;4.50;;
31754;SDS011;18325;52.018;4.726;2022-10-28T02:21:34;9.53;;;5.07;;
31754;SDS011;18325;52.018;4.726;2022-10-28T02:24:18;10.30;;;5.03;;
31754;SDS011;18325;52.018;4.726;2022-10-28T02:26:46;8.50;;;4.63;;
31754;SDS011;18325;52.018;4.726;2022-10-28T02:29:19;11.53;;;5.13;;
31754;SDS011;18325;52.018;4.726;2022-10-28T02:31:50;10.03;;;4.87;;
31754;SDS011;18325;52.018;4.726;2022-10-28T02:34:20;12.70;;;5.93;;
31754;SDS011;18325;52.018;4.726;2022-10-28T02:36:50;9.57;;;5.90;;
31754;SDS011;18325;52.018;4.726;2022-10-28T02:39:19;9.47;;;5.30;;
31754;SDS011;18325;52.018;4.726;2022-10-28T02:41:48;9.77;;;4.87;;
31754;SDS011;18325;52.018;4.726;2022-10-28T02:44:17;7.47;;;4.90;;
31754;SDS011;18325;52.018;4.726;2022-10-28T02:46:47;10.97;;;5.63;;
31754;SDS011;18325;52.018;4.726;2022-10-28T02:49:19;9.77;;;5.20;;
31754;SDS011;18325;52.018;4.726;2022-10-28T02:51:50;9.13;;;4.50;;
31754;SDS011;18325;52.018;4.726;2022-10-28T02:54:19;8.47;;;4.97;;
31754;SDS011;18325;52.018;4.726;2022-10-28T02:56:48;10.83;;;5.20;;
31754;SDS011;18325;52.018;4.726;2022-10-28T02:59:18;9.13;;;4.60;;
31754;SDS011;18325;52.018;4.726;2022-10-28T03:01:45;10.83;;;4.70;;
31754;SDS011;18325;52.018;4.726;2022-10-28T03:04:11;14.37;;;5.60;;
31754;SDS011;18325;52.018;4.726;2022-10-28T03:06:39;9.20;;;5.43;;
31754;SDS011;18325;52.018;4.726;2022-10-28T03:09:05;8.37;;;4.90;;
31754;SDS011;18325;52.018;4.726;2022-10-28T03:11:32;8.00;;;4.83;;
31754;SDS011;18325;52.018;4.726;2022-10-28T03:13:59;9.00;;;5.17;;
31754;SDS011;18325;52.018;4.726;2022-10-28T03:16:25;11.40;;;5.40;;
31754;SDS011;18325;52.018;4.726;2022-10-28T03:18:52;10.17;;;5.17;;
31754;SDS011;18325;52.018;4.726;2022-10-28T03:21:18;8.77;;;4.80;;
31754;SDS011;18325;52.018;4.726;2022-10-28T03:23:46;7.87;;;4.30;;
31754;SDS011;18325;52.018;4.726;2022-10-28T03:26:12;7.53;;;5.23;;
31754;SDS011;18325;52.018;4.726;2022-10-28T03:28:39;7.43;;;4.40;;
31754;SDS011;18325;52.018;4.726;2022-10-28T03:31:05;9.50;;;5.10;;
31754;SDS011;18325;52.018;4.726;2022-10-28T03:33:32;13.03;;;5.07;;
31754;SDS011;18325;52.018;4.726;2022-10-28T03:35:58;11.20;;;5.33;;
31754;SDS011;18325;52.018;4.726;2022-10-28T03:38:25;7.03;;;5.07;;
31754;SDS011;18325;52.018;4.726;2022-10-28T03:40:53;8.70;;;4.33;;
31754;SDS011;18325;52.018;4.726;2022-10-28T03:43:19;8.33;;;4.73;;
31754;SDS011;18325;52.018;4.726;2022-10-28T03:45:46;9.53;;;4.53;;
31754;SDS011;18325;52.018;4.726;2022-10-28T03:48:12;9.83;;;4.67;;
31754;SDS011;18325;52.018;4.726;2022-10-28T03:50:39;10.00;;;4.57;;
31754;SDS011;18325;52.018;4.726;2022-10-28T03:53:06;7.83;;;4.23;;
31754;SDS011;18325;52.018;4.726;2022-10-28T03:55:32;8.27;;;3.90;;
31754;SDS011;18325;52.018;4.726;2022-10-28T03:58:00;14.47;;;5.50;;
31754;SDS011;18325;52.018;4.726;2022-10-28T04:00:27;12.70;;;5.40;;
31754;SDS011;18325;52.018;4.726;2022-10-28T04:02:53;11.27;;;4.87;;
31754;SDS011;18325;52.018;4.726;2022-10-28T04:05:20;8.30;;;5.00;;
31754;SDS011;18325;52.018;4.726;2022-10-28T04:07:46;5.80;;;4.30;;
31754;SDS011;18325;52.018;4.726;2022-10-28T04:10:13;11.70;;;4.90;;
31754;SDS011;18325;52.018;4.726;2022-10-28T04:12:40;13.10;;;4.63;;
31754;SDS011;18325;52.018;4.726;2022-10-28T04:15:08;7.60;;;4.90;;
31754;SDS011;18325;52.018;4.726;2022-10-28T04:17:34;7.30;;;4.27;;
31754;SDS011;18325;52.018;4.726;2022-10-28T04:20:01;10.03;;;5.17;;
31754;SDS011;18325;52.018;4.726;2022-10-28T04:22:27;9.47;;;4.67;;
31754;SDS011;18325;52.018;4.726;2022-10-28T04:24:54;13.13;;;4.67;;
31754;SDS011;18325;52.018;4.726;2022-10-28T04:27:20;6.17;;;4.47;;
31754;SDS011;18325;52.018;4.726;2022-10-28T04:29:47;15.77;;;4.40;;
31754;SDS011;18325;52.018;4.726;2022-10-28T04:32:14;8.30;;;4.47;;
31754;SDS011;18325;52.018;4.726;2022-10-28T04:34:41;7.97;;;4.60;;
31754;SDS011;18325;52.018;4.726;2022-10-28T04:37:07;11.87;;;5.10;;
31754;SDS011;18325;52.018;4.726;2022-10-28T04:39:33;10.40;;;4.13;;
31754;SDS011;18325;52.018;4.726;2022-10-28T04:42:00;14.43;;;4.03;;
31754;SDS011;18325;52.018;4.726;2022-10-28T04:44:26;8.77;;;5.13;;
31754;SDS011;18325;52.018;4.726;2022-10-28T04:46:54;11.20;;;4.83;;
31754;SDS011;18325;52.018;4.726;2022-10-28T04:49:22;15.67;;;5.37;;
31754;SDS011;18325;52.018;4.726;2022-10-28T04:51:48;8.27;;;4.93;;
31754;SDS011;18325;52.018;4.726;2022-10-28T04:54:15;9.57;;;3.97;;
31754;SDS011;18325;52.018;4.726;2022-10-28T04:56:41;8.73;;;4.27;;
31754;SDS011;18325;52.018;4.726;2022-10-28T04:59:07;7.10;;;4.07;;
31754;SDS011;18325;52.018;4.726;2022-10-28T05:01:34;7.07;;;3.97;;
31754;SDS011;18325;52.018;4.726;2022-10-28T05:04:01;8.90;;;4.33;;
31754;SDS011;18325;52.018;4.726;2022-10-28T05:06:29;9.63;;;4.17;;
31754;SDS011;18325;52.018;4.726;2022-10-28T05:08:55;9.20;;;4.47;;
31754;SDS011;18325;52.018;4.726;2022-10-28T05:11:22;10.10;;;4.93;;
31754;SDS011;18325;52.018;4.726;2022-10-28T05:13:48;9.60;;;4.93;;
31754;SDS011;18325;52.018;4.726;2022-10-28T05:16:17;7.90;;;4.63;;
31754;SDS011;18325;52.018;4.726;2022-10-28T05:18:43;15.80;;;6.67;;
31754;SDS011;18325;52.018;4.726;2022-10-28T05:21:10;10.97;;;5.70;;
31754;SDS011;18325;52.018;4.726;2022-10-28T05:23:38;9.90;;;4.90;;
31754;SDS011;18325;52.018;4.726;2022-10-28T05:26:04;17.50;;;7.60;;
31754;SDS011;18325;52.018;4.726;2022-10-28T05:28:31;12.07;;;5.13;;
31754;SDS011;18325;52.018;4.726;2022-10-28T05:30:57;8.50;;;4.23;;
31754;SDS011;18325;52.018;4.726;2022-10-28T05:33:24;8.93;;;3.87;;
31754;SDS011;18325;52.018;4.726;2022-10-28T05:35:50;9.23;;;4.27;;
31754;SDS011;18325;52.018;4.726;2022-10-28T05:38:17;8.80;;;3.97;;
31754;SDS011;18325;52.018;4.726;2022-10-28T05:40:44;10.10;;;4.40;;
31754;SDS011;18325;52.018;4.726;2022-10-28T05:43:11;15.03;;;5.33;;
31754;SDS011;18325;52.018;4.726;2022-10-28T05:45:37;8.63;;;4.50;;
31754;SDS011;18325;52.018;4.726;2022-10-28T05:48:04;8.83;;;4.37;;
31754;SDS011;18325;52.018;4.726;2022-10-28T05:50:31;10.90;;;3.93;;
31754;SDS011;18325;52.018;4.726;2022-10-28T05:52:57;8.60;;;4.37;;
31754;SDS011;18325;52.018;4.726;2022-10-28T05:55:24;8.73;;;4.07;;
31754;SDS011;18325;52.018;4.726;2022-10-28T05:57:53;8.23;;;3.90;;
31754;SDS011;18325;52.018;4.726;2022-10-28T06:00:21;9.00;;;4.10;;
31754;SDS011;18325;52.018;4.726;2022-10-28T06:02:49;6.53;;;4.07;;
31754;SDS011;18325;52.018;4.726;2022-10-28T06:05:16;15.40;;;8.90;;
31754;SDS011;18325;52.018;4.726;2022-10-28T06:07:43;13.87;;;6.50;;
31754;SDS011;18325;52.018;4.726;2022-10-28T06:10:09;11.90;;;6.47;;
31754;SDS011;18325;52.018;4.726;2022-10-28T06:12:36;9.37;;;4.53;;
31754;SDS011;18325;52.018;4.726;2022-10-28T06:15:04;6.83;;;4.10;;
31754;SDS011;18325;52.018;4.726;2022-10-28T06:17:31;9.50;;;4.20;;
31754;SDS011;18325;52.018;4.726;2022-10-28T06:19:58;9.87;;;4.40;;
31754;SDS011;18325;52.018;4.726;2022-10-28T06:22:24;10.20;;;4.27;;
31754;SDS011;18325;52.018;4.726;2022-10-28T06:24:51;6.03;;;3.77;;
31754;SDS011;18325;52.018;4.726;2022-10-28T06:27:17;11.57;;;3.93;;
31754;SDS011;18325;52.018;4.726;2022-10-28T06:29:44;9.03;;;4.40;;
31754;SDS011;18325;52.018;4.726;2022-10-28T06:32:11;7.47;;;3.50;;
31754;SDS011;18325;52.018;4.726;2022-10-28T06:34:38;11.13;;;4.47;;
31754;SDS011;18325;52.018;4.726;2022-10-28T06:37:04;8.33;;;3.90;;
31754;SDS011;18325;52.018;4.726;2022-10-28T06:39:31;7.50;;;3.77;;
31754;SDS011;18325;52.018;4.726;2022-10-28T06:41:58;14.67;;;4.20;;
31754;SDS011;18325;52.018;4.726;2022-10-28T06:44:24;9.10;;;3.73;;
31754;SDS011;18325;52.018;4.726;2022-10-28T06:46:51;7.23;;;4.00;;
31754;SDS011;18325;52.018;4.726;2022-10-28T06:49:19;9.03;;;4.17;;
31754;SDS011;18325;52.018;4.726;2022-10-28T06:51:45;7.93;;;3.77;;
31754;SDS011;18325;52.018;4.726;2022-10-28T06:54:13;6.57;;;3.80;;
31754;SDS011;18325;52.018;4.726;2022-10-28T06:56:40;9.87;;;4.17;;
31754;SDS011;18325;52.018;4.726;2022-10-28T06:59:09;7.47;;;3.50;;
31754;SDS011;18325;52.018;4.726;2022-10-28T07:01:35;6.37;;;4.00;;
31754;SDS011;18325;52.018;4.726;2022-10-28T07:04:02;7.63;;;3.90;;
31754;SDS011;18325;52.018;4.726;2022-10-28T07:06:30;10.80;;;4.40;;
31754;SDS011;18325;52.018;4.726;2022-10-28T07:08:56;9.13;;;4.07;;
31754;SDS011;18325;52.018;4.726;2022-10-28T07:11:23;10.43;;;4.00;;
31754;SDS011;18325;52.018;4.726;2022-10-28T07:13:49;8.10;;;3.80;;
31754;SDS011;18325;52.018;4.726;2022-10-28T07:16:16;9.23;;;4.17;;
31754;SDS011;18325;52.018;4.726;2022-10-28T07:18:42;9.00;;;4.13;;
31754;SDS011;18325;52.018;4.726;2022-10-28T07:21:09;14.73;;;5.27;;
31754;SDS011;18325;52.018;4.726;2022-10-28T07:23:37;6.23;;;3.90;;
31754;SDS011;18325;52.018;4.726;2022-10-28T07:26:03;8.23;;;3.97;;
31754;SDS011;18325;52.018;4.726;2022-10-28T07:28:32;9.13;;;4.53;;
31754;SDS011;18325;52.018;4.726;2022-10-28T07:30:59;9.17;;;4.07;;
31754;SDS011;18325;52.018;4.726;2022-10-28T07:33:26;8.27;;;4.67;;
31754;SDS011;18325;52.018;4.726;2022-10-28T07:35:53;11.30;;;4.20;;
31754;SDS011;18325;52.018;4.726;2022-10-28T07:38:19;10.63;;;4.07;;
31754;SDS011;18325;52.018;4.726;2022-10-28T07:40:47;8.37;;;3.87;;
31754;SDS011;18325;52.018;4.726;2022-10-28T07:43:17;7.97;;;4.30;;
31754;SDS011;18325;52.018;4.726;2022-10-28T07:45:44;11.27;;;3.73;;
31754;SDS011;18325;52.018;4.726;2022-10-28T07:48:10;11.67;;;4.43;;
31754;SDS011;18325;52.018;4.726;2022-10-28T07:50:40;6.80;;;4.10;;
31754;SDS011;18325;52.018;4.726;2022-10-28T07:53:10;8.90;;;4.13;;
31754;SDS011;18325;52.018;4.726;2022-10-28T07:55:36;7.77;;;3.87;;
31754;SDS011;18325;52.018;4.726;2022-10-28T07:58:04;8.63;;;4.30;;
31754;SDS011;18325;52.018;4.726;2022-10-28T08:00:31;14.83;;;4.10;;
31754;SDS011;18325;52.018;4.726;2022-10-28T08:02:57;7.37;;;3.87;;
31754;SDS011;18325;52.018;4.726;2022-10-28T08:05:24;9.47;;;4.20;;
31754;SDS011;18325;52.018;4.726;2022-10-28T08:07:50;9.90;;;3.93;;
31754;SDS011;18325;52.018;4.726;2022-10-28T08:10:17;12.33;;;4.40;;
31754;SDS011;18325;52.018;4.726;2022-10-28T08:12:43;8.50;;;4.03;;
31754;SDS011;18325;52.018;4.726;2022-10-28T08:15:11;11.90;;;4.53;;
31754;SDS011;18325;52.018;4.726;2022-10-28T08:17:40;9.10;;;4.23;;
31754;SDS011;18325;52.018;4.726;2022-10-28T08:20:06;8.87;;;4.50;;
31754;SDS011;18325;52.018;4.726;2022-10-28T08:22:33;11.70;;;4.97;;
31754;SDS011;18325;52.018;4.726;2022-10-28T08:25:00;8.83;;;4.67;;
31754;SDS011;18325;52.018;4.726;2022-10-28T08:27:26;11.73;;;5.27;;
31754;SDS011;18325;52.018;4.726;2022-10-28T08:29:53;9.07;;;4.93;;
31754;SDS011;18325;52.018;4.726;2022-10-28T08:32:21;11.87;;;5.20;;
31754;SDS011;18325;52.018;4.726;2022-10-28T08:34:56;9.27;;;4.47;;
31754;SDS011;18325;52.018;4.726;2022-10-28T08:37:23;9.27;;;4.90;;
31754;SDS011;18325;52.018;4.726;2022-10-28T08:40:02;8.77;;;5.17;;
31754;SDS011;18325;52.018;4.726;2022-10-28T08:42:32;10.50;;;4.63;;
31754;SDS011;18325;52.018;4.726;2022-10-28T08:45:04;8.60;;;4.77;;
31754;SDS011;18325;52.018;4.726;2022-10-28T08:47:43;9.57;;;4.80;;
31754;SDS011;18325;52.018;4.726;2022-10-28T08:50:14;9.23;;;5.17;;
31754;SDS011;18325;52.018;4.726;2022-10-28T08:52:43;7.07;;;4.23;;
31754;SDS011;18325;52.018;4.726;2022-10-28T08:55:13;10.27;;;5.47;;
31754;SDS011;18325;52.018;4.726;2022-10-28T08:57:42;11.27;;;4.67;;
31754;SDS011;18325;52.018;4.726;2022-10-28T09:00:16;8.50;;;4.47;;
31754;SDS011;18325;52.018;4.726;2022-10-28T09:02:58;17.47;;;5.13;;
31754;SDS011;18325;52.018;4.726;2022-10-28T09:05:30;13.17;;;4.03;;
31754;SDS011;18325;52.018;4.726;2022-10-28T09:07:57;9.37;;;5.23;;
31754;SDS011;18325;52.018;4.726;2022-10-28T09:10:37;10.80;;;4.37;;
31754;SDS011;18325;52.018;4.726;2022-10-28T09:13:21;6.37;;;4.23;;
31754;SDS011;18325;52.018;4.726;2022-10-28T09:15:54;13.17;;;5.37;;
31754;SDS011;18325;52.018;4.726;2022-10-28T09:18:32;10.83;;;4.73;;
31754;SDS011;18325;52.018;4.726;2022-10-28T09:21:12;12.33;;;4.57;;
31754;SDS011;18325;52.018;4.726;2022-10-28T09:23:46;10.30;;;5.60;;
31754;SDS011;18325;52.018;4.726;2022-10-28T09:26:19;10.80;;;5.13;;
31754;SDS011;18325;52.018;4.726;2022-10-28T09:28:51;7.73;;;4.20;;
31754;SDS011;18325;52.018;4.726;2022-10-28T09:31:25;10.47;;;4.53;;
31754;SDS011;18325;52.018;4.726;2022-10-28T09:34:01;10.47;;;4.57;;
31754;SDS011;18325;52.018;4.726;2022-10-28T09:36:33;8.87;;;4.90;;
31754;SDS011;18325;52.018;4.726;2022-10-28T09:39:03;11.07;;;5.00;;
31754;SDS011;18325;52.018;4.726;2022-10-28T09:41:30;7.80;;;4.07;;
31754;SDS011;18325;52.018;4.726;2022-10-28T09:44:03;12.50;;;4.97;;
31754;SDS011;18325;52.018;4.726;2022-10-28T09:46:32;8.40;;;5.13;;
31754;SDS011;18325;52.018;4.726;2022-10-28T09:49:02;8.90;;;4.80;;
31754;SDS011;18325;52.018;4.726;2022-10-28T09:51:32;11.37;;;4.37;;
31754;SDS011;18325;52.018;4.726;2022-10-28T09:54:07;15.87;;;5.77;;
31754;SDS011;18325;52.018;4.726;2022-10-28T09:56:35;13.40;;;5.63;;
31754;SDS011;18325;52.018;4.726;2022-10-28T09:59:02;11.30;;;4.90;;
31754;SDS011;18325;52.018;4.726;2022-10-28T10:01:37;10.90;;;5.03;;
31754;SDS011;18325;52.018;4.726;2022-10-28T10:04:15;9.70;;;3.77;;
31754;SDS011;18325;52.018;4.726;2022-10-28T10:12:54;9.80;;;4.67;;
31754;SDS011;18325;52.018;4.726;2022-10-28T10:15:25;10.23;;;5.23;;
31754;SDS011;18325;52.018;4.726;2022-10-28T10:24:53;7.13;;;4.83;;
31754;SDS011;18325;52.018;4.726;2022-10-28T10:27:19;14.17;;;5.97;;
31754;SDS011;18325;52.018;4.726;2022-10-28T10:29:46;14.70;;;6.60;;
31754;SDS011;18325;52.018;4.726;2022-10-28T10:32:17;14.93;;;5.83;;
31754;SDS011;18325;52.018;4.726;2022-10-28T10:34:59;14.73;;;6.20;;
31754;SDS011;18325;52.018;4.726;2022-10-28T10:37:27;28.47;;;9.60;;
31754;SDS011;18325;52.018;4.726;2022-10-28T10:40:00;28.37;;;8.93;;
31754;SDS011;18325;52.018;4.726;2022-10-28T10:42:29;42.37;;;12.67;;
31754;SDS011;18325;52.018;4.726;2022-10-28T10:44:58;34.10;;;9.23;;
31754;SDS011;18325;52.018;4.726;2022-10-28T10:47:26;18.48;;;7.85;;
31754;SDS011;18325;52.018;4.726;2022-10-28T10:49:58;24.47;;;7.53;;
31754;SDS011;18325;52.018;4.726;2022-10-28T10:53:18;25.63;;;7.73;;
31754;SDS011;18325;52.018;4.726;2022-10-28T10:58:45;21.95;;;7.47;;
31754;SDS011;18325;52.018;4.726;2022-10-28T11:01:28;41.70;;;10.07;;
31754;SDS011;18325;52.018;4.726;2022-10-28T11:06:57;14.27;;;5.78;;
31754;SDS011;18325;52.018;4.726;2022-10-28T11:09:26;15.27;;;5.57;;
31754;SDS011;18325;52.018;4.726;2022-10-28T11:18:44;16.23;;;5.70;;
31754;SDS011;18325;52.018;4.726;2022-10-28T11:21:15;12.40;;;5.50;;
31754;SDS011;18325;52.018;4.726;2022-10-28T11:24:08;16.02;;;5.30;;
31754;SDS011;18325;52.018;4.726;2022-10-28T11:27:53;9.27;;;4.18;;
31754;SDS011;18325;52.018;4.726;2022-10-28T11:30:47;20.00;;;6.90;;
31754;SDS011;18325;52.018;4.726;2022-10-28T11:33:18;16.17;;;5.15;;
31754;SDS011;18325;52.018;4.726;2022-10-28T11:35:54;9.55;;;4.20;;
31754;SDS011;18325;52.018;4.726;2022-10-28T11:38:31;15.05;;;4.00;;
31754;SDS011;18325;52.018;4.726;2022-10-28T11:41:09;14.80;;;4.05;;
31754;SDS011;18325;52.018;4.726;2022-10-28T11:43:45;9.95;;;4.70;;
31754;SDS011;18325;52.018;4.726;2022-10-28T11:46:15;11.23;;;4.07;;
31754;SDS011;18325;52.018;4.726;2022-10-28T11:48:51;12.80;;;4.10;;
31754;SDS011;18325;52.018;4.726;2022-10-28T11:51:32;10.18;;;3.95;;
31754;SDS011;18325;52.018;4.726;2022-10-28T11:54:08;10.63;;;4.47;;
31754;SDS011;18325;52.018;4.726;2022-10-28T11:56:44;11.15;;;3.70;;
31754;SDS011;18325;52.018;4.726;2022-10-28T11:59:17;7.10;;;3.95;;
31754;SDS011;18325;52.018;4.726;2022-10-28T12:01:58;11.10;;;3.97;;
31754;SDS011;18325;52.018;4.726;2022-10-28T12:04:38;7.43;;;3.50;;
31754;SDS011;18325;52.018;4.726;2022-10-28T12:07:14;8.70;;;3.50;;
31754;SDS011;18325;52.018;4.726;2022-10-28T12:10:05;7.20;;;3.47;;
31754;SDS011;18325;52.018;4.726;2022-10-28T12:12:41;13.35;;;3.97;;
31754;SDS011;18325;52.018;4.726;2022-10-28T12:15:13;14.73;;;3.55;;
31754;SDS011;18325;52.018;4.726;2022-10-28T12:17:53;10.27;;;3.95;;
31754;SDS011;18325;52.018;4.726;2022-10-28T12:20:24;10.60;;;3.45;;
31754;SDS011;18325;52.018;4.726;2022-10-28T12:23:08;11.98;;;4.30;;
31754;SDS011;18325;52.018;4.726;2022-10-28T12:25:37;5.78;;;3.70;;
31754;SDS011;18325;52.018;4.726;2022-10-28T12:28:06;12.15;;;3.83;;
31754;SDS011;18325;52.018;4.726;2022-10-28T12:30:41;13.25;;;3.35;;
31754;SDS011;18325;52.018;4.726;2022-10-28T12:33:11;16.58;;;4.10;;
31754;SDS011;18325;52.018;4.726;2022-10-28T12:38:44;7.28;;;3.22;;
31754;SDS011;18325;52.018;4.726;2022-10-28T12:41:14;9.10;;;3.38;;
31754;SDS011;18325;52.018;4.726;2022-10-28T12:43:43;6.53;;;3.40;;
31754;SDS011;18325;52.018;4.726;2022-10-28T12:46:13;7.63;;;3.25;;
31754;SDS011;18325;52.018;4.726;2022-10-28T12:48:53;10.13;;;4.13;;
31754;SDS011;18325;52.018;4.726;2022-10-28T12:51:22;9.20;;;3.92;;
31754;SDS011;18325;52.018;4.726;2022-10-28T12:53:54;8.75;;;2.67;;
31754;SDS011;18325;52.018;4.726;2022-10-28T12:56:24;9.68;;;3.30;;
31754;SDS011;18325;52.018;4.726;2022-10-28T12:58:56;6.90;;;3.28;;
31754;SDS011;18325;52.018;4.726;2022-10-28T13:01:25;14.50;;;3.90;;
31754;SDS011;18325;52.018;4.726;2022-10-28T13:03:54;9.32;;;3.85;;
31754;SDS011;18325;52.018;4.726;2022-10-28T13:06:24;14.43;;;3.70;;
31754;SDS011;18325;52.018;4.726;2022-10-28T13:09:27;12.88;;;4.20;;
31754;SDS011;18325;52.018;4.726;2022-10-28T13:12:08;9.20;;;2.70;;
31754;SDS011;18325;52.018;4.726;2022-10-28T13:15:00;11.10;;;4.00;;
31754;SDS011;18325;52.018;4.726;2022-10-28T13:17:40;9.30;;;4.07;;
31754;SDS011;18325;52.018;4.726;2022-10-28T13:20:13;8.43;;;2.85;;
31754;SDS011;18325;52.018;4.726;2022-10-28T13:22:56;8.10;;;3.47;;
31754;SDS011;18325;52.018;4.726;2022-10-28T13:25:32;10.13;;;3.63;;
31754;SDS011;18325;52.018;4.726;2022-10-28T13:28:13;11.50;;;3.75;;
31754;SDS011;18325;52.018;4.726;2022-10-28T13:30:50;10.90;;;3.42;;
31754;SDS011;18325;52.018;4.726;2022-10-28T13:33:19;10.07;;;4.18;;
31754;SDS011;18325;52.018;4.726;2022-10-28T13:35:48;9.55;;;3.88;;
31754;SDS011;18325;52.018;4.726;2022-10-28T13:38:17;6.93;;;3.08;;
31754;SDS011;18325;52.018;4.726;2022-10-28T13:41:18;9.35;;;3.63;;
31754;SDS011;18325;52.018;4.726;2022-10-28T13:43:56;9.43;;;3.67;;
31754;SDS011;18325;52.018;4.726;2022-10-28T13:49:26;9.52;;;3.10;;
31754;SDS011;18325;52.018;4.726;2022-10-28T13:51:58;10.50;;;3.65;;
31754;SDS011;18325;52.018;4.726;2022-10-28T13:54:26;12.93;;;3.97;;
31754;SDS011;18325;52.018;4.726;2022-10-28T13:57:00;26.17;;;5.53;;
31754;SDS011;18325;52.018;4.726;2022-10-28T14:02:21;16.80;;;4.07;;
31754;SDS011;18325;52.018;4.726;2022-10-28T14:07:42;10.90;;;3.30;;
31754;SDS011;18325;52.018;4.726;2022-10-28T14:13:24;6.15;;;2.67;;
31754;SDS011;18325;52.018;4.726;2022-10-28T14:16:13;5.63;;;2.17;;
31754;SDS011;18325;52.018;4.726;2022-10-28T14:18:41;9.35;;;2.55;;
31754;SDS011;18325;52.018;4.726;2022-10-28T14:21:17;8.07;;;2.90;;
31754;SDS011;18325;52.018;4.726;2022-10-28T14:24:05;7.07;;;2.50;;
31754;SDS011;18325;52.018;4.726;2022-10-28T14:29:45;8.57;;;2.53;;
31754;SDS011;18325;52.018;4.726;2022-10-28T14:35:16;10.88;;;2.50;;
31754;SDS011;18325;52.018;4.726;2022-10-28T14:41:03;5.70;;;2.83;;
31754;SDS011;18325;52.018;4.726;2022-10-28T14:43:35;11.73;;;3.05;;
31754;SDS011;18325;52.018;4.726;2022-10-28T14:46:12;5.22;;;2.28;;
31754;SDS011;18325;52.018;4.726;2022-10-28T14:48:45;8.80;;;2.88;;
31754;SDS011;18325;52.018;4.726;2022-10-28T14:51:16;9.15;;;2.83;;
31754;SDS011;18325;52.018;4.726;2022-10-28T14:53:44;5.28;;;2.63;;
31754;SDS011;18325;52.018;4.726;2022-10-28T14:56:15;9.43;;;3.00;;
31754;SDS011;18325;52.018;4.726;2022-10-28T14:58:45;11.93;;;3.08;;
31754;SDS011;18325;52.018;4.726;2022-10-28T15:01:19;17.17;;;7.78;;
31754;SDS011;18325;52.018;4.726;2022-10-28T15:03:47;17.25;;;7.28;;
31754;SDS011;18325;52.018;4.726;2022-10-28T15:06:27;11.43;;;5.05;;
31754;SDS011;18325;52.018;4.726;2022-10-28T15:11:46;7.78;;;2.60;;
31754;SDS011;18325;52.018;4.726;2022-10-28T15:14:14;6.20;;;3.00;;
31754;SDS011;18325;52.018;4.726;2022-10-28T15:16:49;13.98;;;2.85;;
31754;SDS011;18325;52.018;4.726;2022-10-28T15:19:36;6.13;;;2.55;;
31754;SDS011;18325;52.018;4.726;2022-10-28T15:22:05;5.55;;;2.75;;
31754;SDS011;18325;52.018;4.726;2022-10-28T15:24:58;7.88;;;2.47;;
31754;SDS011;18325;52.018;4.726;2022-10-28T15:27:29;8.75;;;2.42;;
31754;SDS011;18325;52.018;4.726;2022-10-28T15:30:02;7.93;;;2.45;;
31754;SDS011;18325;52.018;4.726;2022-10-28T15:32:38;8.48;;;3.15;;
31754;SDS011;18325;52.018;4.726;2022-10-28T15:40:58;7.55;;;2.78;;
31754;SDS011;18325;52.018;4.726;2022-10-28T15:46:18;9.88;;;3.05;;
31754;SDS011;18325;52.018;4.726;2022-10-28T15:48:58;10.02;;;2.80;;
31754;SDS011;18325;52.018;4.726;2022-10-28T15:51:28;6.57;;;2.67;;
31754;SDS011;18325;52.018;4.726;2022-10-28T15:54:09;12.70;;;2.97;;
31754;SDS011;18325;52.018;4.726;2022-10-28T15:56:51;7.28;;;2.45;;
31754;SDS011;18325;52.018;4.726;2022-10-28T15:59:19;9.57;;;2.53;;
31754;SDS011;18325;52.018;4.726;2022-10-28T16:01:47;7.25;;;2.47;;
31754;SDS011;18325;52.018;4.726;2022-10-28T16:07:17;7.18;;;2.38;;
31754;SDS011;18325;52.018;4.726;2022-10-28T16:09:50;7.05;;;2.78;;
31754;SDS011;18325;52.018;4.726;2022-10-28T16:12:29;9.82;;;3.05;;
31754;SDS011;18325;52.018;4.726;2022-10-28T16:14:56;11.45;;;2.92;;
31754;SDS011;18325;52.018;4.726;2022-10-28T16:17:24;12.52;;;2.90;;
31754;SDS011;18325;52.018;4.726;2022-10-28T16:19:52;12.73;;;3.10;;